Time;durP1;ratioP1;P1;durP2;ratioP2;P2;SDS_P1;SDS_P2;PMS_P1;PMS_P2;Temp;Humidity;BMP_temperature;BMP_pressure;BME280_temperature;BME280_humidity;BME280_pressure;Samples;Min_cycle;Max_cycle;Signal;HPM_P1;HPM_P2
2023/10/21 00:00:12;;;;;;;4.00;2.08;;;;;;;;;;4989151;28;20034;-46
2023/10/21 00:02:39;;;;;;;6.30;1.90;;;;;;;;;;4962299;28;20412;-48
2023/10/21 00:05:06;;;;;;;8.03;1.77;;;;;;;;;;4990224;28;20477;-47
2023/10/21 00:07:32;;;;;;;9.02;2.33;;;;;;;;;;4974887;28;20444;-46
2023/10/21 00:09:59;;;;;;;6.00;2.20;;;;;;;;;;4987326;28;20476;-48
2023/10/21 00:12:25;;;;;;;8.65;1.88;;;;;;;;;;4988076;28;20461;-46
2023/10/21 00:14:52;;;;;;;9.90;3.05;;;;;;;;;;4993525;28;20030;-47
2023/10/21 00:17:18;;;;;;;9.45;3.05;;;;;;;;;;4975761;28;20090;-48
2023/10/21 00:19:44;;;;;;;10.20;2.42;;;;;;;;;;4972690;28;20041;-48
2023/10/21 00:22:10;;;;;;;8.83;2.07;;;;;;;;;;4981613;28;20146;-45
2023/10/21 00:24:37;;;;;;;11.90;1.90;;;;;;;;;;4993578;28;20057;-50
2023/10/21 00:27:03;;;;;;;5.38;1.63;;;;;;;;;;4992913;28;20030;-46
2023/10/21 00:29:29;;;;;;;6.17;2.20;;;;;;;;;;4994343;28;20031;-47
2023/10/21 00:31:55;;;;;;;12.03;2.33;;;;;;;;;;4962947;28;20114;-53
2023/10/21 00:34:22;;;;;;;3.15;1.90;;;;;;;;;;4973527;28;20042;-47
2023/10/21 00:36:48;;;;;;;3.88;1.85;;;;;;;;;;4987585;28;20080;-52
2023/10/21 00:39:14;;;;;;;6.43;1.58;;;;;;;;;;4991368;28;20031;-45
2023/10/21 00:41:40;;;;;;;6.78;2.03;;;;;;;;;;4992436;28;20026;-49
2023/10/21 00:44:07;;;;;;;7.82;1.73;;;;;;;;;;4985234;28;20031;-47
2023/10/21 00:46:33;;;;;;;8.73;2.00;;;;;;;;;;4989110;28;20019;-47
2023/10/21 00:49:00;;;;;;;3.50;1.45;;;;;;;;;;4990806;28;20408;-46
2023/10/21 00:51:26;;;;;;;10.48;2.55;;;;;;;;;;4973096;28;20026;-51
2023/10/21 00:53:53;;;;;;;16.33;2.20;;;;;;;;;;4974572;28;20023;-46
2023/10/21 00:56:19;;;;;;;6.25;1.88;;;;;;;;;;4974262;28;20034;-51
2023/10/21 00:58:45;;;;;;;4.67;1.33;;;;;;;;;;4974469;28;20477;-50
2023/10/21 01:01:14;;;;;;;4.00;1.63;;;;;;;;;;4976421;28;20022;-45
2023/10/21 01:03:40;;;;;;;4.43;2.00;;;;;;;;;;4992270;28;20040;-48
2023/10/21 01:06:07;;;;;;;6.20;2.13;;;;;;;;;;4993361;28;20109;-45
2023/10/21 01:08:45;;;;;;;7.75;1.88;;;;;;;;;;4992383;28;20520;-47
2023/10/21 01:11:12;;;;;;;5.15;1.75;;;;;;;;;;4992320;28;20547;-48
2023/10/21 01:13:39;;;;;;;4.38;1.45;;;;;;;;;;4992326;28;20504;-49
2023/10/21 01:16:05;;;;;;;11.02;1.45;;;;;;;;;;4983821;28;20030;-50
2023/10/21 01:18:35;;;;;;;7.15;1.85;;;;;;;;;;4985589;28;20030;-49
2023/10/21 01:21:02;;;;;;;7.05;1.60;;;;;;;;;;4990219;28;20085;-46
2023/10/21 01:23:28;;;;;;;;;;;;;;;;;;4990003;28;20294;-47
2023/10/21 01:25:55;;;;;;;6.63;1.40;;;;;;;;;;4988582;28;19910;-47
2023/10/21 01:28:21;;;;;;;8.05;1.90;;;;;;;;;;4980558;28;20030;-45
2023/10/21 01:30:47;;;;;;;4.57;1.60;;;;;;;;;;4960893;28;20514;-45
2023/10/21 01:33:14;;;;;;;9.13;1.80;;;;;;;;;;4985223;28;20038;-45
2023/10/21 01:35:40;;;;;;;6.40;2.17;;;;;;;;;;4993063;28;20559;-47
2023/10/21 01:38:06;;;;;;;8.77;1.80;;;;;;;;;;4992199;28;20037;-48
2023/10/21 01:40:32;;;;;;;8.73;1.73;;;;;;;;;;4991051;28;20076;-46
2023/10/21 01:42:59;;;;;;;7.65;2.03;;;;;;;;;;4985427;28;20493;-47
2023/10/21 01:45:25;;;;;;;6.70;2.25;;;;;;;;;;4983301;28;20033;-48
2023/10/21 01:47:51;;;;;;;14.10;2.43;;;;;;;;;;4982989;28;20062;-49
2023/10/21 01:50:17;;;;;;;6.72;2.38;;;;;;;;;;4992925;28;20026;-50
2023/10/21 01:52:44;;;;;;;15.20;2.15;;;;;;;;;;4985908;28;20046;-51
2023/10/21 01:55:10;;;;;;;4.18;1.90;;;;;;;;;;4991551;28;20377;-50
2023/10/21 01:57:36;;;;;;;8.73;2.03;;;;;;;;;;4974693;28;20408;-47
2023/10/21 02:00:05;;;;;;;7.77;1.97;;;;;;;;;;4977706;28;20791;-50
2023/10/21 02:02:39;;;;;;;6.15;1.77;;;;;;;;;;4973712;28;20122;-49
2023/10/21 02:05:06;;;;;;;6.60;1.88;;;;;;;;;;4984870;28;20375;-52
2023/10/21 02:07:32;;;;;;;;;;;;;;;;;;4990934;28;20041;-51
2023/10/21 02:09:58;;;;;;;7.03;2.10;;;;;;;;;;4990339;28;20010;-50
2023/10/21 02:12:24;;;;;;;4.83;1.53;;;;;;;;;;4991407;28;20034;-46
2023/10/21 02:14:50;;;;;;;5.00;1.65;;;;;;;;;;4986470;28;20085;-53
2023/10/21 02:17:16;;;;;;;9.07;1.90;;;;;;;;;;4975095;28;20075;-50
2023/10/21 02:19:43;;;;;;;9.00;2.65;;;;;;;;;;4973361;28;20033;-49
2023/10/21 02:22:09;;;;;;;10.38;2.30;;;;;;;;;;4990738;28;20038;-50
2023/10/21 02:24:35;;;;;;;5.68;1.48;;;;;;;;;;4992175;28;20508;-48
2023/10/21 02:27:02;;;;;;;11.43;1.88;;;;;;;;;;4990813;28;20022;-51
2023/10/21 02:29:29;;;;;;;3.95;1.60;;;;;;;;;;4966759;28;20114;-53
2023/10/21 02:31:55;;;;;;;5.75;1.75;;;;;;;;;;5003469;28;20031;-52
2023/10/21 02:34:21;;;;;;;8.85;2.65;;;;;;;;;;4990777;28;20041;-47
2023/10/21 02:36:48;;;;;;;9.20;2.00;;;;;;;;;;4989018;28;20412;-48
2023/10/21 02:39:16;;;;;;;11.60;2.50;;;;;;;;;;4991444;28;20037;-48
2023/10/21 02:41:42;;;;;;;11.02;2.20;;;;;;;;;;4976676;28;20034;-46
2023/10/21 02:44:08;;;;;;;7.90;1.75;;;;;;;;;;4983665;28;20053;-45
2023/10/21 02:46:34;;;;;;;8.98;1.90;;;;;;;;;;4978761;28;20046;-46
2023/10/21 02:49:00;;;;;;;3.83;0.95;;;;;;;;;;4984013;28;20023;-49
2023/10/21 02:51:26;;;;;;;9.27;2.08;;;;;;;;;;4969256;28;20031;-46
2023/10/21 02:53:54;;;;;;;5.35;1.95;;;;;;;;;;4987030;28;20081;-47
2023/10/21 02:56:20;;;;;;;8.27;2.25;;;;;;;;;;4988218;28;20041;-48
2023/10/21 02:58:46;;;;;;;6.20;1.77;;;;;;;;;;4984332;28;20485;-45
2023/10/21 03:01:14;;;;;;;4.55;1.40;;;;;;;;;;4983210;28;20464;-45
2023/10/21 03:03:40;;;;;;;7.78;1.83;;;;;;;;;;4976173;28;20572;-47
2023/10/21 03:06:08;;;;;;;10.23;2.13;;;;;;;;;;4984840;28;20022;-46
2023/10/21 03:08:35;;;;;;;9.05;1.90;;;;;;;;;;4991371;28;20038;-51
2023/10/21 03:11:05;;;;;;;13.68;2.10;;;;;;;;;;4995484;28;20444;-47
2023/10/21 03:13:31;;;;;;;4.70;1.90;;;;;;;;;;4994010;28;20037;-47
2023/10/21 03:15:58;;;;;;;4.35;1.55;;;;;;;;;;4984893;28;20584;-45
2023/10/21 03:18:25;;;;;;;7.40;2.35;;;;;;;;;;4976239;28;20030;-49
2023/10/21 03:20:51;;;;;;;9.23;1.80;;;;;;;;;;4985725;28;20093;-46
2023/10/21 03:23:18;;;;;;;11.47;2.97;;;;;;;;;;4994139;28;20030;-47
2023/10/21 03:25:44;;;;;;;11.23;4.25;;;;;;;;;;4991055;28;20274;-48
2023/10/21 03:28:11;;;;;;;7.40;2.60;;;;;;;;;;4977752;28;20059;-45
2023/10/21 03:30:37;;;;;;;11.48;3.78;;;;;;;;;;4980206;28;20014;-52
2023/10/21 03:33:03;;;;;;;12.20;4.53;;;;;;;;;;4995426;28;20500;-49
2023/10/21 03:35:30;;;;;;;11.95;5.00;;;;;;;;;;4986373;28;20034;-46
2023/10/21 03:37:56;;;;;;;11.85;5.28;;;;;;;;;;4989723;28;20493;-49
2023/10/21 03:40:22;;;;;;;13.43;6.17;;;;;;;;;;4987492;28;20497;-48
2023/10/21 03:42:48;;;;;;;18.17;6.60;;;;;;;;;;4975743;28;20030;-46
2023/10/21 03:45:15;;;;;;;11.50;7.72;;;;;;;;;;4982241;28;20073;-45
2023/10/21 03:47:41;;;;;;;11.87;6.50;;;;;;;;;;4974185;28;20037;-46
2023/10/21 03:50:07;;;;;;;7.95;5.97;;;;;;;;;;4979581;28;20033;-49
2023/10/21 03:52:33;;;;;;;10.85;5.47;;;;;;;;;;4960844;28;20034;-48
2023/10/21 03:54:59;;;;;;;12.55;5.80;;;;;;;;;;4980765;28;20034;-45
2023/10/21 03:57:26;;;;;;;11.18;6.35;;;;;;;;;;4994799;28;20035;-45
2023/10/21 03:59:52;;;;;;;17.13;6.35;;;;;;;;;;4994874;28;20060;-47
2023/10/21 04:02:18;;;;;;;10.93;5.72;;;;;;;;;;4993624;28;20121;-46
2023/10/21 04:04:45;;;;;;;8.77;5.20;;;;;;;;;;4993631;28;20072;-46
2023/10/21 04:07:11;;;;;;;16.05;6.65;;;;;;;;;;5047341;23;20376;-61
2023/10/21 04:09:38;;;;;;;13.40;5.68;;;;;;;;;;5013109;28;20026;-57
2023/10/21 04:12:04;;;;;;;15.50;6.15;;;;;;;;;;5014285;28;20037;-58
2023/10/21 04:14:30;;;;;;;12.35;6.63;;;;;;;;;;5014308;28;20553;-60
2023/10/21 04:16:58;;;;;;;18.23;6.20;;;;;;;;;;5004577;28;20174;-54
2023/10/21 04:19:24;;;;;;;9.70;6.43;;;;;;;;;;4994592;28;20351;-60
2023/10/21 04:21:50;;;;;;;12.65;7.03;;;;;;;;;;4993096;28;20054;-59
2023/10/21 04:24:16;;;;;;;20.17;7.63;;;;;;;;;;4994758;28;20053;-58
2023/10/21 04:26:42;;;;;;;12.85;6.85;;;;;;;;;;4994372;28;20030;-58
2023/10/21 04:29:09;;;;;;;16.50;6.80;;;;;;;;;;4994454;28;20392;-60
2023/10/21 04:31:35;;;;;;;19.60;8.52;;;;;;;;;;4994335;28;20092;-61
2023/10/21 04:34:01;;;;;;;11.85;6.97;;;;;;;;;;4993073;28;20062;-61
2023/10/21 04:36:28;;;;;;;11.50;6.78;;;;;;;;;;4994141;28;20057;-59
2023/10/21 04:38:55;;;;;;;16.88;8.13;;;;;;;;;;4994271;28;20030;-59
2023/10/21 04:41:21;;;;;;;17.17;8.25;;;;;;;;;;4994256;28;20031;-60
2023/10/21 04:43:47;;;;;;;15.20;8.50;;;;;;;;;;4994081;28;20478;-58
2023/10/21 04:46:13;;;;;;;17.85;7.88;;;;;;;;;;4993883;28;20038;-58
2023/10/21 04:48:39;;;;;;;14.52;8.60;;;;;;;;;;4993991;28;20480;-58
2023/10/21 04:51:06;;;;;;;19.65;9.52;;;;;;;;;;4994273;28;20510;-59
2023/10/21 04:53:32;;;;;;;21.52;9.65;;;;;;;;;;4992745;28;20037;-57
2023/10/21 04:55:58;;;;;;;15.02;9.07;;;;;;;;;;4993811;28;20095;-59
2023/10/21 04:58:25;;;;;;;17.70;9.77;;;;;;;;;;4992671;28;20358;-59
2023/10/21 05:00:51;;;;;;;21.53;10.97;;;;;;;;;;4992547;28;20123;-61
2023/10/21 05:03:17;;;;;;;22.92;10.50;;;;;;;;;;4993593;28;20281;-61
2023/10/21 05:05:43;;;;;;;23.20;10.68;;;;;;;;;;4993669;28;20034;-58
2023/10/21 05:08:09;;;;;;;21.42;11.90;;;;;;;;;;4992791;28;20034;-61
2023/10/21 05:10:35;;;;;;;28.13;12.93;;;;;;;;;;4993672;28;20113;-58
2023/10/21 05:13:02;;;;;;;18.70;11.82;;;;;;;;;;4993574;28;20034;-58
2023/10/21 05:15:29;;;;;;;22.63;12.27;;;;;;;;;;4993625;28;20497;-60
2023/10/21 05:17:55;;;;;;;20.92;11.98;;;;;;;;;;4993174;28;20030;-59
2023/10/21 05:20:21;;;;;;;22.88;13.82;;;;;;;;;;4993493;28;20088;-58
2023/10/21 05:22:47;;;;;;;22.70;15.27;;;;;;;;;;4993507;28;20034;-59
2023/10/21 05:25:13;;;;;;;21.73;14.17;;;;;;;;;;4993439;28;20034;-61
2023/10/21 05:27:39;;;;;;;30.02;14.98;;;;;;;;;;4993136;28;20018;-61
2023/10/21 05:30:06;;;;;;;28.08;15.70;;;;;;;;;;4993211;28;20081;-61
2023/10/21 05:32:32;;;;;;;39.72;15.07;;;;;;;;;;4993150;28;20061;-61
2023/10/21 05:34:58;;;;;;;22.15;13.95;;;;;;;;;;4993555;28;20436;-59
2023/10/21 05:37:26;;;;;;;31.45;15.20;;;;;;;;;;4991738;28;20034;-57
2023/10/21 05:39:52;;;;;;;26.70;13.57;;;;;;;;;;4993132;28;20042;-58
2023/10/21 05:42:18;;;;;;;28.90;15.10;;;;;;;;;;4992996;28;20034;-59
2023/10/21 05:44:44;;;;;;;28.65;15.40;;;;;;;;;;4993072;28;20073;-59
2023/10/21 05:47:10;;;;;;;26.40;14.95;;;;;;;;;;4992750;28;20504;-59
2023/10/21 05:49:37;;;;;;;26.33;14.53;;;;;;;;;;4993203;28;20031;-60
2023/10/21 05:52:03;;;;;;;27.40;15.48;;;;;;;;;;4992913;28;20116;-58
2023/10/21 05:54:32;;;;;;;24.85;15.38;;;;;;;;;;4993194;28;20031;-61
2023/10/21 05:56:58;;;;;;;30.27;16.85;;;;;;;;;;4991349;28;20400;-60
2023/10/21 05:59:24;;;;;;;28.13;16.75;;;;;;;;;;4992643;28;20033;-63
2023/10/21 06:01:51;;;;;;;26.13;16.90;;;;;;;;;;4991353;28;20156;-55
2023/10/21 06:04:17;;;;;;;30.85;16.75;;;;;;;;;;4992731;28;20026;-56
2023/10/21 06:06:44;;;;;;;25.60;15.60;;;;;;;;;;4992552;28;20038;-57
2023/10/21 06:09:10;;;;;;;24.13;16.38;;;;;;;;;;4992575;28;20026;-57
2023/10/21 06:11:36;;;;;;;29.80;17.17;;;;;;;;;;4991201;28;20036;-56
2023/10/21 06:14:02;;;;;;;32.75;15.60;;;;;;;;;;4992765;28;20026;-56
2023/10/21 06:16:29;;;;;;;24.20;16.98;;;;;;;;;;4992317;28;20097;-56
2023/10/21 06:18:56;;;;;;;26.83;17.05;;;;;;;;;;4991278;28;20031;-59
2023/10/21 06:21:22;;;;;;;23.27;15.00;;;;;;;;;;4992520;28;20023;-55
2023/10/21 06:23:48;;;;;;;25.10;16.10;;;;;;;;;;4992386;28;20023;-62
2023/10/21 06:26:14;;;;;;;24.23;14.50;;;;;;;;;;4992133;28;20496;-60
2023/10/21 06:28:41;;;;;;;21.02;14.75;;;;;;;;;;4992132;28;20050;-65
2023/10/21 06:31:07;;;;;;;21.80;15.47;;;;;;;;;;4991052;28;20076;-65
2023/10/21 06:33:35;;;;;;;27.97;15.03;;;;;;;;;;4991184;28;20038;-65
2023/10/21 06:36:01;;;;;;;27.17;16.48;;;;;;;;;;4992100;28;20034;-65
2023/10/21 06:38:27;;;;;;;23.57;15.33;;;;;;;;;;4992565;28;20038;-65
2023/10/21 06:40:54;;;;;;;27.77;16.67;;;;;;;;;;4984708;28;20121;-64
2023/10/21 06:43:20;;;;;;;20.73;14.35;;;;;;;;;;4972575;28;20098;-64
2023/10/21 06:45:49;;;;;;;26.33;15.77;;;;;;;;;;4972991;28;20482;-64
2023/10/21 06:48:15;;;;;;;24.42;16.90;;;;;;;;;;4972928;28;20030;-63
2023/10/21 06:50:41;;;;;;;27.13;16.35;;;;;;;;;;4972926;28;20034;-64
2023/10/21 06:53:08;;;;;;;26.38;17.17;;;;;;;;;;4972848;28;20042;-62
2023/10/21 06:55:44;;;;;;;25.92;15.60;;;;;;;;;;4972729;28;20541;-64
2023/10/21 06:58:13;;;;;;;27.48;17.83;;;;;;;;;;4972531;28;20035;-63
2023/10/21 07:00:40;;;;;;;21.70;15.60;;;;;;;;;;4972912;28;20397;-64
2023/10/21 07:03:06;;;;;;;33.10;17.45;;;;;;;;;;4972747;28;20030;-63
2023/10/21 07:05:33;;;;;;;26.08;16.33;;;;;;;;;;4971463;28;20536;-64
2023/10/21 07:07:59;;;;;;;27.60;16.77;;;;;;;;;;4971207;28;20058;-64
2023/10/21 07:10:29;;;;;;;29.90;17.88;;;;;;;;;;4975849;28;20022;-63
2023/10/21 07:12:55;;;;;;;23.70;17.10;;;;;;;;;;4992153;28;20560;-62
2023/10/21 07:15:21;;;;;;;23.33;15.13;;;;;;;;;;4992057;28;20512;-62
2023/10/21 07:17:47;;;;;;;22.05;15.15;;;;;;;;;;4991810;28;20533;-61
2023/10/21 07:20:13;;;;;;;23.30;14.70;;;;;;;;;;4992047;28;20081;-62
2023/10/21 07:22:42;;;;;;;19.77;14.00;;;;;;;;;;4991659;28;20543;-62
2023/10/21 07:25:10;;;;;;;19.15;14.45;;;;;;;;;;4991866;28;20030;-62
2023/10/21 07:27:36;;;;;;;22.10;13.80;;;;;;;;;;4991324;28;20038;-63
2023/10/21 07:30:05;;;;;;;23.38;14.48;;;;;;;;;;4993071;28;20412;-63
2023/10/21 07:32:31;;;;;;;18.80;13.02;;;;;;;;;;4995530;28;20038;-59
2023/10/21 07:34:58;;;;;;;23.75;13.98;;;;;;;;;;4995613;28;20034;-59
2023/10/21 07:37:24;;;;;;;19.80;13.83;;;;;;;;;;4995239;28;20038;-59
2023/10/21 07:39:50;;;;;;;1368.30;610.77;;;;;;;;;;4995339;28;20038;-53
2023/10/21 07:42:16;;;;;;;31.50;18.83;;;;;;;;;;4995224;28;20030;-57
2023/10/21 07:44:42;;;;;;;24.50;14.38;;;;;;;;;;4995354;28;20027;-62
2023/10/21 07:47:09;;;;;;;26.27;15.17;;;;;;;;;;4993721;28;20071;-63
2023/10/21 07:49:35;;;;;;;23.98;14.52;;;;;;;;;;4995322;28;20026;-61
2023/10/21 07:52:03;;;;;;;28.42;15.75;;;;;;;;;;4995090;28;20066;-62
2023/10/21 07:54:29;;;;;;;22.42;15.18;;;;;;;;;;4995247;28;20034;-62
2023/10/21 07:56:55;;;;;;;23.93;17.37;;;;;;;;;;4994791;28;20089;-61
2023/10/21 07:59:22;;;;;;;25.07;17.13;;;;;;;;;;4993985;28;20038;-62
2023/10/21 08:01:48;;;;;;;22.60;15.73;;;;;;;;;;4995022;28;20030;-62
2023/10/21 08:04:14;;;;;;;24.75;15.90;;;;;;;;;;4995130;28;20407;-61
2023/10/21 08:06:44;;;;;;;27.73;17.00;;;;;;;;;;4994595;28;20042;-62
2023/10/21 08:09:14;;;;;;;31.10;18.30;;;;;;;;;;4995159;28;20038;-61
2023/10/21 08:11:41;;;;;;;26.02;17.42;;;;;;;;;;4993375;28;20030;-62
2023/10/21 08:14:07;;;;;;;31.15;20.45;;;;;;;;;;4994873;28;20497;-62
2023/10/21 08:16:34;;;;;;;29.15;17.90;;;;;;;;;;4994635;28;20026;-62
2023/10/21 08:19:00;;;;;;;28.67;18.92;;;;;;;;;;4994598;28;20373;-61
2023/10/21 08:21:27;;;;;;;31.45;19.20;;;;;;;;;;4993400;28;20093;-61
2023/10/21 08:23:53;;;;;;;26.80;19.00;;;;;;;;;;4993438;28;20497;-60
2023/10/21 08:26:19;;;;;;;30.93;20.10;;;;;;;;;;4993963;28;20030;-62
2023/10/21 08:28:46;;;;;;;32.45;19.40;;;;;;;;;;4993602;28;20026;-61
2023/10/21 08:31:12;;;;;;;27.95;18.50;;;;;;;;;;4994495;28;20022;-62
2023/10/21 08:33:38;;;;;;;30.02;19.27;;;;;;;;;;4994418;28;20042;-61
2023/10/21 08:36:05;;;;;;;25.60;18.67;;;;;;;;;;4976752;28;20513;-62
2023/10/21 08:38:31;;;;;;;33.70;20.20;;;;;;;;;;4994408;28;20113;-62
2023/10/21 08:40:57;;;;;;;28.67;17.95;;;;;;;;;;4992695;28;20106;-58
2023/10/21 08:43:24;;;;;;;34.00;21.00;;;;;;;;;;4993724;28;20477;-62
2023/10/21 08:45:52;;;;;;;34.05;21.02;;;;;;;;;;4993967;28;20023;-63
2023/10/21 08:48:18;;;;;;;38.90;21.27;;;;;;;;;;4993833;28;20034;-63
2023/10/21 08:50:48;;;;;;;28.83;21.00;;;;;;;;;;4992358;28;20041;-63
2023/10/21 08:53:15;;;;;;;39.13;19.10;;;;;;;;;;4994229;28;20488;-61
2023/10/21 08:55:41;;;;;;;30.00;19.10;;;;;;;;;;4992710;28;20304;-59
2023/10/21 08:58:07;;;;;;;38.63;20.90;;;;;;;;;;4993698;28;20105;-62
2023/10/21 09:00:34;;;;;;;33.47;21.47;;;;;;;;;;4993760;28;20081;-63
2023/10/21 09:03:02;;;;;;;37.67;20.45;;;;;;;;;;4993697;28;20038;-63
2023/10/21 09:05:28;;;;;;;29.85;20.85;;;;;;;;;;4992556;28;20022;-62
2023/10/21 09:07:54;;;;;;;36.33;21.63;;;;;;;;;;4992222;28;20408;-62
2023/10/21 09:10:21;;;;;;;33.45;20.35;;;;;;;;;;4993762;28;20609;-63
2023/10/21 09:12:47;;;;;;;34.08;19.70;;;;;;;;;;4993701;28;20026;-62
2023/10/21 09:15:13;;;;;;;28.00;20.27;;;;;;;;;;4993517;28;20034;-63
2023/10/21 09:17:42;;;;;;;36.30;20.73;;;;;;;;;;4992048;28;20512;-60
2023/10/21 09:20:11;;;;;;;40.60;21.00;;;;;;;;;;4993616;28;20285;-63
2023/10/21 09:22:38;;;;;;;31.60;20.00;;;;;;;;;;4993374;28;20057;-62
2023/10/21 09:25:21;;;;;;;38.63;21.13;;;;;;;;;;4992163;28;20030;-63
2023/10/21 09:27:49;;;;;;;35.33;21.55;;;;;;;;;;4992988;28;20389;-63
2023/10/21 09:30:19;;;;;;;36.88;21.63;;;;;;;;;;4993086;28;20540;-63
2023/10/21 09:32:49;;;;;;;35.95;19.88;;;;;;;;;;4993267;28;20519;-62
2023/10/21 09:35:21;;;;;;;37.38;20.35;;;;;;;;;;4992117;28;20072;-63
2023/10/21 09:37:50;;;;;;;34.58;21.70;;;;;;;;;;4992962;28;20415;-63
2023/10/21 09:40:17;;;;;;;33.10;20.58;;;;;;;;;;4993032;28;20066;-63
2023/10/21 09:42:44;;;;;;;30.17;19.70;;;;;;;;;;4992965;28;20027;-63
2023/10/21 09:45:14;;;;;;;39.88;20.40;;;;;;;;;;4993128;28;20030;-62
2023/10/21 09:47:42;;;;;;;31.52;19.65;;;;;;;;;;4992844;28;20026;-61
2023/10/21 09:50:12;;;;;;;31.23;17.90;;;;;;;;;;4993001;28;20445;-62
2023/10/21 09:52:44;;;;;;;28.15;18.30;;;;;;;;;;4992658;28;20038;-62
2023/10/21 09:55:11;;;;;;;33.55;19.60;;;;;;;;;;4992806;28;20034;-63
2023/10/21 09:57:37;;;;;;;25.92;16.85;;;;;;;;;;4991327;28;20117;-62
2023/10/21 10:00:07;;;;;;;34.47;17.20;;;;;;;;;;4992944;28;20038;-61
2023/10/21 10:02:36;;;;;;;24.80;17.67;;;;;;;;;;4992708;28;20037;-61
2023/10/21 10:05:06;;;;;;;30.45;16.30;;;;;;;;;;4991381;28;20022;-61
2023/10/21 10:07:35;;;;;;;27.15;17.48;;;;;;;;;;4992850;28;20030;-63
2023/10/21 10:10:03;;;;;;;22.27;14.50;;;;;;;;;;4992593;28;20499;-63
2023/10/21 10:12:38;;;;;;;26.90;14.57;;;;;;;;;;4992852;28;20123;-62
2023/10/21 10:15:22;;;;;;;26.58;14.63;;;;;;;;;;4991392;28;20030;-63
2023/10/21 10:17:49;;;;;;;20.90;15.55;;;;;;;;;;4990997;28;20030;-63
2023/10/21 10:20:18;;;;;;;;;;;;;;;;;;4992928;28;20038;-62
2023/10/21 10:22:44;;;;;;;33.50;16.30;;;;;;;;;;4992367;28;19918;-61
2023/10/21 10:25:10;;;;;;;22.55;14.60;;;;;;;;;;4992390;28;20018;-63
2023/10/21 10:27:40;;;;;;;23.38;13.43;;;;;;;;;;4992134;28;20477;-63
2023/10/21 10:30:15;;;;;;;27.30;13.65;;;;;;;;;;4992272;28;20054;-63
2023/10/21 10:32:43;;;;;;;20.73;13.45;;;;;;;;;;4992208;28;20540;-62
2023/10/21 10:35:13;;;;;;;25.25;12.70;;;;;;;;;;4990810;28;20112;-63
2023/10/21 10:37:50;;;;;;;23.67;12.95;;;;;;;;;;4990733;28;20022;-63
2023/10/21 10:40:18;;;;;;;21.33;12.20;;;;;;;;;;4992321;28;20037;-62
2023/10/21 10:42:44;;;;;;;21.70;13.00;;;;;;;;;;4992079;28;20034;-55
2023/10/21 10:45:10;;;;;;;28.08;13.15;;;;;;;;;;4991741;28;20424;-56
2023/10/21 10:47:40;;;;;;;19.63;12.07;;;;;;;;;;4991823;28;20050;-57
2023/10/21 10:50:16;;;;;;;19.33;12.43;;;;;;;;;;4991643;28;20563;-57
2023/10/21 10:52:42;;;;;;;20.80;13.63;;;;;;;;;;4991026;28;20030;-58
2023/10/21 10:55:11;;;;;;;25.90;14.50;;;;;;;;;;4991978;28;20034;-56
2023/10/21 10:57:38;;;;;;;24.45;13.02;;;;;;;;;;4991925;28;20262;-58
2023/10/21 11:00:10;;;;;;;18.95;12.02;;;;;;;;;;4983883;28;20397;-59
2023/10/21 11:02:46;;;;;;;20.35;10.65;;;;;;;;;;4991987;28;20030;-59
2023/10/21 11:05:17;;;;;;;20.77;11.13;;;;;;;;;;4993225;28;20026;-59
2023/10/21 11:07:43;;;;;;;12.55;9.30;;;;;;;;;;4995361;28;20132;-59
2023/10/21 11:10:12;;;;;;;14.35;8.50;;;;;;;;;;4995538;28;20092;-59
2023/10/21 11:12:38;;;;;;;13.90;9.02;;;;;;;;;;4988321;28;20038;-59
2023/10/21 11:15:06;;;;;;;20.43;10.40;;;;;;;;;;4994168;28;20066;-59
2023/10/21 11:17:33;;;;;;;16.98;9.38;;;;;;;;;;4995444;28;20038;-63
2023/10/21 11:19:59;;;;;;;21.95;10.02;;;;;;;;;;4985553;28;20066;-63
2023/10/21 11:22:26;;;;;;;;;;;;;;;;;;4995873;28;20037;-63
2023/10/21 11:24:55;;;;;;;18.15;10.20;;;;;;;;;;4995097;28;20280;-63
2023/10/21 11:27:22;;;;;;;18.48;8.80;;;;;;;;;;4994358;28;20026;-62
2023/10/21 11:29:51;;;;;;;19.90;9.43;;;;;;;;;;4994734;28;20034;-62
2023/10/21 11:32:26;;;;;;;18.02;9.15;;;;;;;;;;4995132;28;20031;-63
2023/10/21 11:34:52;;;;;;;17.58;8.77;;;;;;;;;;4995060;28;20619;-63
2023/10/21 11:37:21;;;;;;;16.48;7.95;;;;;;;;;;4994856;28;20066;-63
2023/10/21 11:39:51;;;;;;;14.98;9.10;;;;;;;;;;4993930;28;20500;-63
2023/10/21 11:42:18;;;;;;;14.07;8.50;;;;;;;;;;4993011;28;20374;-63
2023/10/21 11:45:03;;;;;;;23.40;15.82;;;;;;;;;;4994903;28;20543;-60
2023/10/21 11:47:30;;;;;;;29.75;21.13;;;;;;;;;;4994815;28;20477;-60
2023/10/21 11:49:56;;;;;;;;;;;;;;;;;;4995593;28;20449;-61
2023/10/21 11:52:24;;;;;;;14.57;7.63;;;;;;;;;;4994836;28;20291;-61
2023/10/21 11:57:56;;;;;;;14.13;7.28;;;;;;;;;;4994531;28;20396;-61
2023/10/21 12:06:45;;;;;;;12.07;8.00;;;;;;;;;;4994348;28;20030;-62
2023/10/21 12:19:25;;;;;;;11.57;7.38;;;;;;;;;;4981662;28;20031;-61
2023/10/21 12:22:20;;;;;;;10.35;7.20;;;;;;;;;;4984861;28;20031;-62
2023/10/21 12:30:42;;;;;;;14.40;7.05;;;;;;;;;;4992931;28;20038;-62
2023/10/21 12:38:40;;;;;;;12.65;5.75;;;;;;;;;;4994148;28;20481;-62
2023/10/21 12:41:15;;;;;;;10.93;5.50;;;;;;;;;;4992862;28;20121;-62
2023/10/21 12:43:45;;;;;;;8.60;6.25;;;;;;;;;;4994181;28;20034;-62
2023/10/21 12:46:18;;;;;;;9.43;5.55;;;;;;;;;;4993794;28;20030;-62
2023/10/21 12:48:45;;;;;;;13.93;5.93;;;;;;;;;;4994121;28;20034;-62
2023/10/21 12:51:15;;;;;;;9.65;6.60;;;;;;;;;;4993852;28;20034;-62
2023/10/21 12:53:42;;;;;;;9.93;4.85;;;;;;;;;;4994143;28;20404;-62
2023/10/21 12:56:09;;;;;;;12.60;4.47;;;;;;;;;;4993606;28;20030;-62
2023/10/21 12:58:35;;;;;;;;;;;;;;;;;;4992911;28;20388;-62
2023/10/21 13:01:04;;;;;;;9.90;5.97;;;;;;;;;;4986655;28;19909;-62
2023/10/21 13:03:31;;;;;;;8.77;4.57;;;;;;;;;;4974396;28;20033;-62
2023/10/21 13:05:57;;;;;;;9.13;5.95;;;;;;;;;;4982975;28;20023;-62
2023/10/21 13:08:23;;;;;;;9.65;5.80;;;;;;;;;;4993712;28;20660;-62
2023/10/21 13:10:50;;;;;;;7.38;5.25;;;;;;;;;;4993775;28;20117;-62
2023/10/21 13:13:18;;;;;;;10.88;5.78;;;;;;;;;;4992194;28;20022;-62
2023/10/21 13:15:44;;;;;;;7.32;5.53;;;;;;;;;;4993484;28;20038;-62
2023/10/21 13:18:10;;;;;;;8.68;6.00;;;;;;;;;;4992453;28;20405;-62
2023/10/21 13:20:37;;;;;;;8.27;6.03;;;;;;;;;;4992732;28;20061;-62
2023/10/21 13:23:04;;;;;;;9.88;5.50;;;;;;;;;;4993432;28;20022;-62
2023/10/21 13:25:30;;;;;;;38.75;28.48;;;;;;;;;;4993412;28;20023;-57
2023/10/21 13:27:56;;;;;;;13.68;8.02;;;;;;;;;;4992591;28;20026;-59
2023/10/21 13:30:22;;;;;;;47.75;31.92;;;;;;;;;;4991823;28;20023;-57
2023/10/21 13:32:49;;;;;;;9.10;6.10;;;;;;;;;;4993261;28;20034;-59
2023/10/21 13:35:15;;;;;;;;;;;;;;;;;;4993475;28;20030;-58
2023/10/21 13:37:45;;;;;;;9.88;5.75;;;;;;;;;;4992814;28;20368;-58
2023/10/21 13:40:16;;;;;;;7.72;4.78;;;;;;;;;;4992946;28;20034;-57
2023/10/21 13:42:46;;;;;;;9.60;4.72;;;;;;;;;;4993065;28;20070;-54
2023/10/21 13:45:21;;;;;;;11.23;5.40;;;;;;;;;;4992925;28;20026;-54
2023/10/21 13:47:54;;;;;;;9.50;4.80;;;;;;;;;;4992723;28;20033;-59
2023/10/21 13:50:23;;;;;;;8.75;4.95;;;;;;;;;;4992326;28;20517;-62
2023/10/21 13:52:50;;;;;;;9.23;5.97;;;;;;;;;;4992790;28;20027;-62
2023/10/21 13:55:16;;;;;;;;;;;;;;;;;;4992958;28;20073;-62
2023/10/21 13:57:46;;;;;;;9.68;5.53;;;;;;;;;;4992256;28;19968;-62
2023/10/21 14:03:08;;;;;;;9.23;5.22;;;;;;;;;;4983419;28;20057;-63
2023/10/21 14:05:36;;;;;;;9.95;4.97;;;;;;;;;;4992550;28;20016;-62
2023/10/21 14:08:03;;;;;;;6.30;3.08;;;;;;;;;;4992473;28;20033;-62
2023/10/21 14:10:31;;;;;;;7.18;2.78;;;;;;;;;;4992613;28;20022;-62
2023/10/21 14:12:57;;;;;;;6.32;3.15;;;;;;;;;;4992083;28;20030;-62
2023/10/21 14:15:23;;;;;;;9.60;3.45;;;;;;;;;;4992260;28;20399;-62
2023/10/21 14:17:49;;;;;;;5.97;2.78;;;;;;;;;;4991456;28;20034;-62
2023/10/21 14:20:16;;;;;;;8.35;3.28;;;;;;;;;;4990882;28;20535;-62
2023/10/21 14:22:42;;;;;;;9.90;3.50;;;;;;;;;;4989101;28;20401;-62
2023/10/21 14:25:08;;;;;;;;;;;;;;;;;;4992265;28;20052;-62
2023/10/21 14:27:37;;;;;;;6.47;3.10;;;;;;;;;;4991274;28;19913;-62
2023/10/21 14:30:09;;;;;;;8.73;4.20;;;;;;;;;;4991880;28;20027;-61
2023/10/21 14:32:37;;;;;;;6.30;4.18;;;;;;;;;;4985703;28;20133;-62
2023/10/21 14:35:07;;;;;;;6.03;4.22;;;;;;;;;;4992366;28;20041;-62
2023/10/21 14:37:36;;;;;;;219.32;195.27;;;;;;;;;;4992232;28;20130;-58
2023/10/21 14:40:07;;;;;;;14.65;10.25;;;;;;;;;;4991202;28;20027;-60
2023/10/21 14:42:40;;;;;;;19.60;13.27;;;;;;;;;;4990572;28;20117;-63
2023/10/21 14:45:13;;;;;;;24.48;7.78;;;;;;;;;;4979348;28;20069;-60
2023/10/21 14:47:39;;;;;;;36.08;8.98;;;;;;;;;;4989918;28;20113;-62
2023/10/21 14:50:06;;;;;;;12.60;6.30;;;;;;;;;;4980339;28;20031;-62
2023/10/21 14:52:33;;;;;;;10.30;5.95;;;;;;;;;;4983380;28;20038;-62
2023/10/21 14:55:00;;;;;;;12.80;6.90;;;;;;;;;;4979270;28;20101;-62
2023/10/21 14:57:26;;;;;;;11.07;7.07;;;;;;;;;;4991138;28;20038;-62
2023/10/21 14:59:54;;;;;;;14.45;7.10;;;;;;;;;;4973088;28;20038;-63
2023/10/21 15:02:20;;;;;;;17.25;7.45;;;;;;;;;;4972225;28;20062;-63
2023/10/21 15:04:49;;;;;;;14.20;8.05;;;;;;;;;;4991485;28;20030;-62